createdAt,value
2018-07-03T00:01:11.461Z,55.32
2018-07-03T00:03:40.860Z,55.64
2018-07-03T00:06:10.481Z,56.31
2018-07-03T00:08:40.323Z,56.34
2018-07-03T00:11:10.297Z,56.28
2018-07-03T00:13:40.028Z,56.13
2018-07-03T00:16:14.750Z,56.11
2018-07-03T00:18:44.211Z,56.57
2018-07-03T00:21:14.456Z,57.01
2018-07-03T00:23:46.429Z,57.00
2018-07-03T00:26:18.452Z,56.81
2018-07-03T00:28:49.737Z,56.70
2018-07-03T00:31:20.634Z,56.88
2018-07-03T00:33:50.726Z,57.16
2018-07-03T00:36:21.172Z,57.24
2018-07-03T00:38:51.133Z,57.15
2018-07-03T00:41:21.146Z,57.36
2018-07-03T00:43:51.681Z,57.45
2018-07-03T00:46:21.622Z,57.72
2018-07-03T00:48:51.332Z,57.89
2018-07-03T00:51:20.939Z,58.27
2018-07-03T00:53:50.985Z,58.53
2018-07-03T00:58:53.878Z,58.81
2018-07-03T01:01:23.296Z,59.29
2018-07-03T01:03:52.610Z,58.90
2018-07-03T01:06:21.936Z,59.29
2018-07-03T01:08:51.428Z,59.48
2018-07-03T01:11:20.910Z,59.61
2018-07-03T01:13:51.137Z,59.65
2018-07-03T01:16:20.666Z,59.96
2018-07-03T01:18:50.107Z,59.97
2018-07-03T01:21:20.189Z,59.78
2018-07-03T01:23:49.642Z,59.60
2018-07-03T01:26:19.072Z,59.70
2018-07-03T01:28:48.756Z,59.98
2018-07-03T01:31:18.370Z,60.10
2018-07-03T01:33:48.460Z,60.32
2018-07-03T01:36:18.200Z,60.40
2018-07-03T01:38:47.703Z,60.66
2018-07-03T01:41:17.434Z,60.80
2018-07-03T01:43:47.029Z,60.69
2018-07-03T01:46:16.854Z,61.25
2018-07-03T01:48:46.444Z,61.64
2018-07-03T01:51:17.436Z,62.10
2018-07-03T01:53:47.090Z,62.24
2018-07-03T01:56:16.902Z,61.82
2018-07-03T01:58:46.456Z,62.03
2018-07-03T02:01:16.315Z,62.81
2018-07-03T02:03:45.949Z,62.95
2018-07-03T02:06:15.563Z,63.25
2018-07-03T02:08:45.552Z,62.96
2018-07-03T02:11:15.278Z,62.78
2018-07-03T02:13:45.513Z,63.26
2018-07-03T02:16:15.509Z,63.11
2018-07-03T02:18:45.527Z,63.33
2018-07-03T02:21:15.393Z,63.17
2018-07-03T02:23:45.148Z,64.03
2018-07-03T02:26:14.579Z,63.97
2018-07-03T02:28:44.213Z,64.56
2018-07-03T02:31:14.091Z,65.41
2018-07-03T02:33:43.551Z,65.40
2018-07-03T02:36:14.007Z,65.31
2018-07-03T02:38:43.741Z,65.45
2018-07-03T02:41:13.553Z,64.48
2018-07-03T02:43:45.440Z,65.00
2018-07-03T02:46:14.888Z,65.44
2018-07-03T02:48:44.499Z,65.41
2018-07-03T02:51:14.572Z,66.42
2018-07-03T02:53:44.187Z,66.54
2018-07-03T02:56:14.672Z,66.38
2018-07-03T02:58:44.209Z,67.07
2018-07-03T03:01:13.663Z,67.12
2018-07-03T03:03:43.273Z,66.98
2018-07-03T03:06:12.982Z,67.40
2018-07-03T03:08:42.614Z,66.96
2018-07-03T03:11:12.293Z,66.75
2018-07-03T03:13:42.081Z,67.39
2018-07-03T03:16:15.025Z,67.43
2018-07-03T03:18:45.700Z,66.41
2018-07-03T03:21:15.342Z,66.53
2018-07-03T03:23:45.098Z,67.40
2018-07-03T03:26:15.768Z,67.13
2018-07-03T03:28:45.628Z,67.35
2018-07-03T03:31:15.098Z,66.82
2018-07-03T03:33:44.820Z,66.68
2018-07-03T03:36:14.698Z,67.97
2018-07-03T03:38:44.612Z,66.92
2018-07-03T03:41:14.759Z,66.57
2018-07-03T03:43:44.821Z,66.51
2018-07-03T03:46:14.458Z,67.03
2018-07-03T03:48:44.476Z,67.96
2018-07-03T03:51:13.984Z,67.33
2018-07-03T03:53:43.800Z,67.37
2018-07-03T03:56:14.249Z,66.95
2018-07-03T03:58:43.972Z,67.79
2018-07-03T04:01:13.647Z,68.17
2018-07-03T04:03:43.634Z,68.06
2018-07-03T04:06:13.687Z,68.34
2018-07-03T04:08:43.717Z,67.68
2018-07-03T04:11:13.836Z,67.42
2018-07-03T04:13:43.677Z,68.00
2018-07-03T04:16:13.654Z,67.93
2018-07-03T04:18:44.556Z,67.56
2018-07-03T04:21:14.571Z,67.59
2018-07-03T04:23:45.037Z,67.98
2018-07-03T04:26:15.783Z,67.65
2018-07-03T04:28:46.009Z,67.67
2018-07-03T04:31:15.616Z,67.51
2018-07-03T04:33:45.330Z,67.71
2018-07-03T04:36:15.283Z,67.51
2018-07-03T04:38:45.227Z,67.50
2018-07-03T04:41:16.099Z,66.67
2018-07-03T04:43:46.724Z,66.92
2018-07-03T04:46:16.853Z,66.69
2018-07-03T04:48:47.352Z,66.58
2018-07-03T04:51:16.856Z,65.72
2018-07-03T04:53:46.576Z,65.75
2018-07-03T04:56:16.707Z,65.50
2018-07-03T04:58:46.488Z,66.30
2018-07-03T05:01:16.524Z,66.53
2018-07-03T05:03:46.516Z,66.16
2018-07-03T05:06:16.345Z,66.14
2018-07-03T05:08:46.525Z,65.17
2018-07-03T05:11:16.670Z,66.11
2018-07-03T05:13:46.317Z,65.03
2018-07-03T05:16:15.886Z,64.97
2018-07-03T05:18:45.418Z,65.31
2018-07-03T05:21:15.153Z,64.28
2018-07-03T05:23:45.194Z,63.90
2018-07-03T05:26:14.567Z,63.83
2018-07-03T05:28:44.717Z,64.29
2018-07-03T05:31:14.336Z,63.66
2018-07-03T05:33:44.146Z,63.33
2018-07-03T05:36:14.020Z,62.71
2018-07-03T05:38:43.837Z,62.99
2018-07-03T05:41:13.850Z,62.88
2018-07-03T05:43:43.744Z,62.68
2018-07-03T05:46:13.308Z,62.90
2018-07-03T05:48:43.707Z,62.67
2018-07-03T05:51:13.596Z,63.11
2018-07-03T05:53:44.268Z,62.47
2018-07-03T05:56:14.219Z,61.46
2018-07-03T05:58:44.152Z,62.07
2018-07-03T06:01:13.972Z,61.80
2018-07-03T06:03:43.716Z,61.11
2018-07-03T06:06:13.465Z,59.73
2018-07-03T06:08:42.940Z,60.40
2018-07-03T06:11:12.504Z,60.28
2018-07-03T06:13:42.211Z,60.20
2018-07-03T06:16:11.918Z,59.09
2018-07-03T06:18:41.404Z,58.42
2018-07-03T06:21:11.005Z,56.61
2018-07-03T06:23:41.126Z,57.02
2018-07-03T06:26:10.736Z,56.31
2018-07-03T06:28:40.647Z,56.27
2018-07-03T06:31:12.969Z,55.19
2018-07-03T06:33:42.502Z,55.93
2018-07-03T06:36:12.636Z,55.37
2018-07-03T06:38:43.278Z,53.95
2018-07-03T06:41:13.487Z,53.05
2018-07-03T06:43:43.816Z,54.67
2018-07-03T06:46:14.147Z,53.26
2018-07-03T06:48:44.036Z,52.65
2018-07-03T06:51:14.072Z,51.21
2018-07-03T06:53:43.969Z,51.32
2018-07-03T06:56:13.832Z,51.79
2018-07-03T06:58:43.616Z,51.37
2018-07-03T07:01:14.205Z,51.41
2018-07-03T07:03:44.375Z,50.04
2018-07-03T07:06:14.590Z,48.77
2018-07-03T07:08:45.325Z,49.04
2018-07-03T07:11:15.097Z,49.28
2018-07-03T07:13:45.059Z,49.23
2018-07-03T07:16:16.017Z,49.37
2018-07-03T07:18:45.631Z,49.04
2018-07-03T07:21:15.348Z,48.75
2018-07-03T07:23:46.280Z,48.58
2018-07-03T07:26:15.848Z,47.86
2018-07-03T07:28:45.420Z,47.44
2018-07-03T07:31:16.631Z,47.97
2018-07-03T07:33:46.409Z,48.27
2018-07-03T07:36:16.839Z,46.19
2018-07-03T07:38:46.519Z,47.88
2018-07-03T07:41:16.361Z,47.28
2018-07-03T07:43:46.262Z,45.00
2018-07-03T07:46:17.166Z,44.94
2018-07-03T07:48:47.217Z,46.46
2018-07-03T07:51:17.109Z,46.20
2018-07-03T07:53:47.579Z,45.02
2018-07-03T07:56:18.311Z,45.70
2018-07-03T07:58:48.831Z,47.53
2018-07-03T08:01:19.549Z,49.26
2018-07-03T08:03:49.321Z,49.16
2018-07-03T08:06:18.801Z,49.05
2018-07-03T08:08:48.703Z,47.35
2018-07-03T08:11:18.577Z,48.08
2018-07-03T08:13:48.166Z,43.74
2018-07-03T08:16:17.941Z,44.76
2018-07-03T08:18:47.905Z,44.14
2018-07-03T08:21:17.551Z,45.58
2018-07-03T08:23:47.196Z,46.11
2018-07-03T08:26:17.047Z,46.25
2018-07-03T08:28:46.706Z,45.66
2018-07-03T08:31:16.801Z,45.45
2018-07-03T08:33:48.098Z,45.16
2018-07-03T08:36:18.135Z,45.06
2018-07-03T08:38:48.464Z,44.82
2018-07-03T08:41:18.536Z,43.72
2018-07-03T08:43:48.594Z,44.91
2018-07-03T08:46:18.344Z,44.49
2018-07-03T08:48:48.016Z,44.49
2018-07-03T08:51:17.832Z,43.68
2018-07-03T08:53:47.477Z,44.19
2018-07-03T08:56:17.230Z,42.69
2018-07-03T08:58:48.237Z,42.97
2018-07-03T09:01:18.851Z,44.65
2018-07-03T09:03:49.072Z,44.85
2018-07-03T09:06:18.820Z,44.86
2018-07-03T09:08:49.495Z,44.77
2018-07-03T09:11:19.106Z,44.26
2018-07-03T09:13:48.772Z,42.08
2018-07-03T09:16:19.906Z,42.51
2018-07-03T09:18:49.652Z,42.05
2018-07-03T09:21:19.430Z,41.52
2018-07-03T09:23:49.709Z,39.70
2018-07-03T09:26:19.638Z,38.54
2018-07-03T09:28:49.356Z,43.11
2018-07-03T09:31:19.286Z,42.30
2018-07-03T09:33:48.693Z,44.01
2018-07-03T09:36:18.003Z,42.82
2018-07-03T09:38:48.086Z,43.36
2018-07-03T09:41:17.678Z,41.91
2018-07-03T09:43:47.337Z,43.65
2018-07-03T09:46:17.120Z,43.53
2018-07-03T09:48:46.825Z,43.42
2018-07-03T09:51:17.487Z,41.60
2018-07-03T09:53:48.916Z,40.00
2018-07-03T09:56:18.579Z,38.15
2018-07-03T09:58:48.718Z,37.07
2018-07-03T10:01:19.634Z,37.66
2018-07-03T10:03:50.090Z,38.43
2018-07-03T10:06:19.682Z,39.34
2018-07-03T10:08:50.012Z,40.50
2018-07-03T10:11:19.471Z,40.70
2018-07-03T10:13:49.197Z,41.28
2018-07-03T10:16:18.802Z,42.12
2018-07-03T10:18:48.194Z,42.59
2018-07-03T10:21:17.912Z,40.72
2018-07-03T10:23:47.317Z,41.64
2018-07-03T10:26:17.057Z,42.17
2018-07-03T10:28:47.145Z,42.33
2018-07-03T10:31:17.391Z,42.33
2018-07-03T10:33:47.029Z,44.64
2018-07-03T10:36:16.651Z,43.99
2018-07-03T10:38:52.766Z,43.50
2018-07-03T10:41:22.042Z,42.72
2018-07-03T10:43:51.681Z,40.77
2018-07-03T10:46:21.190Z,41.12
2018-07-03T10:48:50.653Z,40.15
2018-07-03T10:51:20.087Z,40.28
2018-07-03T10:53:51.330Z,37.92
2018-07-03T10:56:21.812Z,37.87
2018-07-03T10:58:52.658Z,38.63
2018-07-03T11:01:22.158Z,39.62
2018-07-03T11:03:52.023Z,40.13
2018-07-03T11:06:21.496Z,41.08
2018-07-03T11:08:51.097Z,39.58
2018-07-03T11:11:20.472Z,40.02
2018-07-03T11:13:49.960Z,38.09
2018-07-03T11:16:19.315Z,38.17
2018-07-03T11:18:48.960Z,35.93
2018-07-03T11:21:19.400Z,37.27
2018-07-03T11:23:49.797Z,38.11
2018-07-03T11:26:19.381Z,37.79
2018-07-03T11:28:48.886Z,36.98
2018-07-03T11:31:18.379Z,35.84
2018-07-03T11:33:47.999Z,33.19
2018-07-03T11:36:17.685Z,32.85
2018-07-03T11:38:47.316Z,33.16
2018-07-03T11:41:16.902Z,32.26
2018-07-03T11:43:46.774Z,33.03
2018-07-03T11:46:17.344Z,33.07
2018-07-03T11:48:47.046Z,32.47
2018-07-03T11:51:16.916Z,31.98
2018-07-03T11:53:46.499Z,30.82
2018-07-03T11:56:16.972Z,31.55
2018-07-03T11:58:46.840Z,31.02
2018-07-03T12:01:16.753Z,31.33
2018-07-03T12:03:47.352Z,32.74
2018-07-03T12:06:17.254Z,33.78
2018-07-03T12:08:46.868Z,35.98
2018-07-03T12:11:16.601Z,35.89
2018-07-03T12:13:46.304Z,36.39
2018-07-03T12:16:16.010Z,35.23
2018-07-03T12:18:50.941Z,35.45
2018-07-03T12:21:20.457Z,33.86
2018-07-03T12:23:49.997Z,33.05
2018-07-03T12:26:20.334Z,32.78
2018-07-03T12:28:49.691Z,30.15
2018-07-03T12:31:19.261Z,30.95
2018-07-03T12:33:48.976Z,30.58
2018-07-03T12:36:18.479Z,32.59
2018-07-03T12:38:48.418Z,32.94
2018-07-03T12:41:19.343Z,32.80
2018-07-03T12:43:49.049Z,33.35
2018-07-03T12:46:19.100Z,32.67
2018-07-03T12:48:49.134Z,31.81
2018-07-03T12:51:18.920Z,29.78
2018-07-03T12:53:48.920Z,29.85
2018-07-03T12:56:19.227Z,30.17
2018-07-03T12:58:49.082Z,32.53
2018-07-03T13:01:19.005Z,32.25
2018-07-03T13:03:49.765Z,33.08
2018-07-03T13:06:19.512Z,31.44
2018-07-03T13:08:49.451Z,31.63
2018-07-03T13:11:20.163Z,31.00
2018-07-03T13:13:49.579Z,30.65
2018-07-03T13:16:19.131Z,28.86
2018-07-03T13:18:48.943Z,28.67
2018-07-03T13:21:18.915Z,28.86
2018-07-03T13:23:48.494Z,29.36
2018-07-03T13:26:18.623Z,27.94
2018-07-03T13:28:48.620Z,26.66
2018-07-03T13:31:18.662Z,25.92
2018-07-03T13:33:48.421Z,25.10
2018-07-03T13:36:17.976Z,25.07
2018-07-03T13:38:47.785Z,25.21
2018-07-03T13:41:17.627Z,26.85
2018-07-03T13:43:47.594Z,29.48
2018-07-03T13:46:17.499Z,30.84
2018-07-03T13:48:47.174Z,31.47
2018-07-03T13:51:17.179Z,31.35
2018-07-03T13:53:47.134Z,30.06
2018-07-03T13:56:16.906Z,28.46
2018-07-03T13:58:46.659Z,28.71
2018-07-03T14:01:16.780Z,26.89
2018-07-03T14:03:47.062Z,27.17
2018-07-03T14:06:17.174Z,25.31
2018-07-03T14:08:47.091Z,25.33
2018-07-03T14:11:16.753Z,25.77
2018-07-03T14:13:47.241Z,24.28
2018-07-03T14:16:18.056Z,24.81
2018-07-03T14:18:47.621Z,24.59
2018-07-03T14:21:17.317Z,26.43
2018-07-03T14:23:47.169Z,28.28
2018-07-03T14:26:16.978Z,28.65
2018-07-03T14:28:46.590Z,27.52
2018-07-03T14:31:16.296Z,28.58
2018-07-03T14:33:45.868Z,26.40
2018-07-03T14:36:15.507Z,26.21
2018-07-03T14:38:45.337Z,27.06
2018-07-03T14:41:14.929Z,25.87
2018-07-03T14:43:44.446Z,25.19
2018-07-03T14:46:14.135Z,26.36
2018-07-03T14:48:43.871Z,27.42
2018-07-03T14:51:15.248Z,26.89
2018-07-03T14:53:45.262Z,27.53
2018-07-03T14:56:15.338Z,26.62
2018-07-03T14:58:45.152Z,27.30
2018-07-03T15:01:14.671Z,26.81
2018-07-03T15:03:44.235Z,27.86
2018-07-03T15:06:14.263Z,26.11
2018-07-03T15:08:45.922Z,27.61
2018-07-03T15:11:19.775Z,25.43
2018-07-03T15:13:51.406Z,25.29
2018-07-03T15:16:24.239Z,23.69
2018-07-03T15:19:01.334Z,23.53
2018-07-03T15:21:31.435Z,24.05
2018-07-03T15:24:04.293Z,22.26
2018-07-03T15:26:34.375Z,22.76
2018-07-03T15:29:06.774Z,22.89
2018-07-03T15:31:36.900Z,24.68
2018-07-03T15:34:06.979Z,24.21
2018-07-03T15:36:37.199Z,23.78
2018-07-03T15:39:12.303Z,23.12
2018-07-03T15:41:43.027Z,24.43
2018-07-03T15:44:23.695Z,23.38
2018-07-03T15:46:53.176Z,23.65
2018-07-03T15:49:22.577Z,22.71
2018-07-03T15:51:51.972Z,22.77
2018-07-03T15:54:21.752Z,23.60
2018-07-03T15:56:51.887Z,23.65
2018-07-03T15:59:21.284Z,24.17
2018-07-03T16:01:50.717Z,24.83
2018-07-03T16:05:34.949Z,24.38
2018-07-03T16:09:11.750Z,24.13
2018-07-03T16:11:42.164Z,23.65
2018-07-03T16:14:12.819Z,24.97
2018-07-03T16:16:43.919Z,26.09
2018-07-03T16:19:18.759Z,27.02
2018-07-03T16:21:48.349Z,29.29
2018-07-03T16:24:18.149Z,28.96
2018-07-03T16:26:47.761Z,29.61
2018-07-03T16:29:18.394Z,28.75
2018-07-03T16:31:51.227Z,30.07
2018-07-03T16:34:21.008Z,28.04
2018-07-03T16:36:50.490Z,26.85
2018-07-03T16:39:19.962Z,26.95
2018-07-03T16:41:50.535Z,27.66
2018-07-03T16:44:20.439Z,28.74
2018-07-03T16:46:49.998Z,27.73
2018-07-03T16:49:20.203Z,28.07
2018-07-03T16:51:49.890Z,27.95
2018-07-03T16:54:19.681Z,28.28
2018-07-03T16:56:49.599Z,28.55
2018-07-03T16:59:19.056Z,29.56
2018-07-03T17:01:53.057Z,30.57
2018-07-03T17:04:22.565Z,30.99
2018-07-03T17:06:54.240Z,32.31
2018-07-03T17:09:23.883Z,31.67
2018-07-03T17:11:54.784Z,31.84
2018-07-03T17:14:29.715Z,32.11
2018-07-03T17:16:59.260Z,32.31
2018-07-03T17:19:42.928Z,33.01
2018-07-03T17:22:13.337Z,32.78
2018-07-03T17:24:44.368Z,33.21
2018-07-03T17:27:15.299Z,33.61
2018-07-03T17:29:45.053Z,32.78
2018-07-03T17:32:15.715Z,33.65
2018-07-03T17:34:46.755Z,34.58
2018-07-03T17:37:17.136Z,34.60
2018-07-03T17:39:58.819Z,34.00
2018-07-03T17:42:39.601Z,35.17
2018-07-03T17:45:47.326Z,36.48
2018-07-03T17:48:18.591Z,38.40
2018-07-03T17:50:49.341Z,38.80
2018-07-03T17:53:19.006Z,39.04
2018-07-03T17:55:49.028Z,38.62
2018-07-03T17:58:19.411Z,39.15
2018-07-03T18:01:53.429Z,38.04
2018-07-03T18:04:23.363Z,38.55
2018-07-03T18:06:52.900Z,39.33
2018-07-03T18:09:22.681Z,39.09
2018-07-03T18:11:54.181Z,40.08
2018-07-03T18:14:25.967Z,39.60
2018-07-03T18:16:55.574Z,39.57
2018-07-03T18:19:30.161Z,39.97
2018-07-03T18:21:59.634Z,41.14
2018-07-03T18:24:29.361Z,41.02
2018-07-03T18:26:59.273Z,41.54
2018-07-03T18:29:28.685Z,42.26
2018-07-03T18:31:58.131Z,42.79
2018-07-03T18:34:27.503Z,43.35
2018-07-03T18:36:57.048Z,43.54
2018-07-03T18:39:26.565Z,43.28
2018-07-03T18:41:55.924Z,43.46
2018-07-03T18:44:25.289Z,43.02
2018-07-03T18:46:54.678Z,43.69
2018-07-03T18:49:24.426Z,43.61
2018-07-03T18:51:54.323Z,44.89
2018-07-03T18:54:23.840Z,44.37
2018-07-03T18:56:54.187Z,44.72
2018-07-03T18:59:23.922Z,45.61
2018-07-03T19:01:54.195Z,46.18
2018-07-03T19:04:23.941Z,45.80
2018-07-03T19:06:54.306Z,47.37
2018-07-03T19:09:24.621Z,47.75
2018-07-03T19:11:54.239Z,48.13
2018-07-03T19:14:23.589Z,49.85
2018-07-03T19:16:53.577Z,50.79
2018-07-03T19:19:24.314Z,51.35
2018-07-03T19:21:53.755Z,52.65
2018-07-03T19:24:24.113Z,53.77
2018-07-03T19:26:54.704Z,54.28
2018-07-03T19:29:24.622Z,54.42
2018-07-03T19:31:54.379Z,54.39
2018-07-03T19:34:24.125Z,54.82
2018-07-03T19:36:54.006Z,55.55
2018-07-03T19:39:24.072Z,56.74
2018-07-03T19:41:54.482Z,57.28
2018-07-03T19:44:24.192Z,57.08
2018-07-03T19:46:54.639Z,57.52
2018-07-03T19:49:25.089Z,58.13
2018-07-03T19:51:54.664Z,58.71
2018-07-03T19:54:24.301Z,58.53
2018-07-03T19:56:54.831Z,59.23
2018-07-03T19:59:24.518Z,59.85
2018-07-03T20:01:54.928Z,60.02
2018-07-03T20:04:25.219Z,60.94
2018-07-03T20:06:55.310Z,60.72
2018-07-03T20:09:24.824Z,60.66
2018-07-03T20:11:54.377Z,61.78
2018-07-03T20:14:23.699Z,61.61
2018-07-03T20:16:54.251Z,62.14
2018-07-03T20:19:23.593Z,62.83
2018-07-03T20:21:53.079Z,63.27
2018-07-03T20:24:23.353Z,63.15
2018-07-03T20:26:52.672Z,62.93
2018-07-03T20:29:22.304Z,63.51
2018-07-03T20:31:52.632Z,64.24
2018-07-03T20:34:22.160Z,63.89
2018-07-03T20:36:51.409Z,64.37
2018-07-03T20:39:20.811Z,64.49
2018-07-03T20:41:50.446Z,64.73
2018-07-03T20:44:20.001Z,64.90
2018-07-03T20:46:50.598Z,65.40
2018-07-03T20:49:20.325Z,65.07
2018-07-03T20:51:49.779Z,65.13
2018-07-03T20:54:19.251Z,64.93
2018-07-03T20:56:48.934Z,65.31
2018-07-03T20:59:18.381Z,65.17
2018-07-03T21:01:47.925Z,65.38
2018-07-03T21:04:18.295Z,65.36
2018-07-03T21:06:48.273Z,65.64
2018-07-03T21:09:18.684Z,66.01
2018-07-03T21:11:48.691Z,66.30
2018-07-03T21:14:18.726Z,66.48
2018-07-03T21:16:48.378Z,66.68
2018-07-03T21:19:22.431Z,67.38
2018-07-03T21:21:55.219Z,67.16
2018-07-03T21:24:26.081Z,67.73
2018-07-03T21:26:57.935Z,67.89
2018-07-03T21:29:27.272Z,68.35
2018-07-03T21:31:57.462Z,68.71
2018-07-03T21:34:26.874Z,68.86
2018-07-03T21:36:56.245Z,69.33
2018-07-03T21:39:25.469Z,69.57
2018-07-03T21:41:54.848Z,69.70
2018-07-03T21:44:24.790Z,70.17
2018-07-03T21:46:54.438Z,70.31
2018-07-03T21:49:23.788Z,70.25
2018-07-03T21:51:53.242Z,70.73
2018-07-03T21:54:22.678Z,70.82
2018-07-03T21:56:53.829Z,71.51
2018-07-03T21:59:23.332Z,71.29
2018-07-03T22:01:52.663Z,71.59
2018-07-03T22:04:22.309Z,72.29
2018-07-03T22:06:52.704Z,72.89
2018-07-03T22:09:22.186Z,72.72
2018-07-03T22:11:52.680Z,72.31
2018-07-03T22:14:22.114Z,72.66
2018-07-03T22:16:51.598Z,73.18
2018-07-03T22:19:21.916Z,73.93
2018-07-03T22:21:51.738Z,73.50
2018-07-03T22:24:21.112Z,73.68
2018-07-03T22:26:50.657Z,74.27
2018-07-03T22:29:20.060Z,74.45
2018-07-03T22:31:49.590Z,74.29
2018-07-03T22:34:20.234Z,74.45
2018-07-03T22:36:49.603Z,74.04
2018-07-03T22:39:19.398Z,74.64
2018-07-03T22:41:48.952Z,75.10
2018-07-03T22:44:18.454Z,75.39
2018-07-03T22:46:48.339Z,75.58
2018-07-03T22:49:17.813Z,76.09
2018-07-03T22:51:47.283Z,75.63
2018-07-03T22:54:17.327Z,75.52
2018-07-03T22:56:47.044Z,75.92
2018-07-03T22:59:16.981Z,76.15
2018-07-03T23:01:46.909Z,76.08
2018-07-03T23:04:16.699Z,76.54
2018-07-03T23:06:46.321Z,77.18
2018-07-03T23:09:15.837Z,77.47
2018-07-03T23:11:45.367Z,77.38
2018-07-03T23:14:15.030Z,77.32
2018-07-03T23:16:45.173Z,77.75
2018-07-03T23:19:14.992Z,78.17
2018-07-03T23:21:44.573Z,77.65
2018-07-03T23:24:14.250Z,77.82
2018-07-03T23:26:44.132Z,78.62
2018-07-03T23:29:13.945Z,78.65
2018-07-03T23:31:43.644Z,79.29
2018-07-03T23:34:13.525Z,78.14
2018-07-03T23:36:44.189Z,78.33
2018-07-03T23:39:13.879Z,78.38
2018-07-03T23:41:44.257Z,79.57
2018-07-03T23:44:13.899Z,79.76
2018-07-03T23:46:54.513Z,80.00
2018-07-03T23:49:35.222Z,80.07
2018-07-03T23:52:16.569Z,80.32
2018-07-03T23:54:57.067Z,80.46
2018-07-03T23:57:38.213Z,79.77
